Time;durP1;ratioP1;P1;durP2;ratioP2;P2;SDS_P1;SDS_P2;PMS_P1;PMS_P2;Temp;Humidity;BMP_temperature;BMP_pressure;BME280_temperature;BME280_humidity;BME280_pressure;Samples;Min_cycle;Max_cycle;Signal;HPM_P1;HPM_P2
2022/01/15 00:00:38;;;;;;;7.97;6.87;;;;;;;3.09;79.64;96682.44;4333448;32;20306;-63
2022/01/15 00:03:08;;;;;;;7.50;6.80;;;;;;;3.14;79.66;96689.66;4335576;32;20320;-63
2022/01/15 00:05:34;;;;;;;7.80;7.13;;;;;;;3.04;79.55;96690.12;4317265;32;20304;-63
2022/01/15 00:08:02;;;;;;;9.17;7.67;;;;;;;2.99;79.99;96687.31;4321503;32;20290;-63
2022/01/15 00:10:29;;;;;;;7.93;6.93;;;;;;;3.10;79.81;96680.63;4328879;32;20304;-63
2022/01/15 00:12:57;;;;;;;11.73;9.03;;;;;;;3.19;79.22;96695.06;4311637;32;20351;-63
2022/01/15 00:15:30;;;;;;;9.57;8.40;;;;;;;3.05;80.17;96685.69;4300883;32;20353;-63
2022/01/15 00:18:00;;;;;;;8.87;7.13;;;;;;;2.83;80.67;96687.84;4329206;32;20286;-63
2022/01/15 00:20:28;;;;;;;8.63;7.70;;;;;;;2.92;80.35;96678.69;4348282;32;20300;-63
2022/01/15 00:22:57;;;;;;;10.37;7.10;;;;;;;3.01;79.87;96685.31;4320734;32;20325;-63
2022/01/15 00:25:28;;;;;;;7.73;6.93;;;;;;;3.14;79.33;96679.16;4341663;32;20278;-63
2022/01/15 00:27:55;;;;;;;8.40;7.60;;;;;;;3.04;78.99;96678.84;4319707;32;20351;-64
2022/01/15 00:30:22;;;;;;;8.00;6.93;;;;;;;2.96;79.71;96676.47;4339124;32;20289;-63
2022/01/15 00:32:49;;;;;;;8.47;7.40;;;;;;;2.88;80.46;96674.09;4323259;32;20313;-63
2022/01/15 00:35:21;;;;;;;7.97;7.27;;;;;;;2.95;79.96;96680.09;4347409;32;20307;-63
2022/01/15 00:37:48;;;;;;;9.33;7.93;;;;;;;2.96;79.61;96676.47;4328717;32;20349;-64
2022/01/15 00:40:17;;;;;;;8.40;7.60;;;;;;;2.90;79.63;96685.19;4323815;32;20293;-63
2022/01/15 00:42:45;;;;;;;9.47;7.67;;;;;;;2.85;80.30;96674.53;4347013;32;20289;-63
2022/01/15 00:45:19;;;;;;;9.43;7.23;;;;;;;2.85;80.22;96666.66;4364816;32;20337;-63
2022/01/15 00:47:46;;;;;;;11.87;8.30;;;;;;;2.95;79.44;96673.03;4350799;32;20342;-63
2022/01/15 00:50:12;;;;;;;10.47;7.83;;;;;;;2.78;80.42;96673.75;4316626;32;20286;-63
2022/01/15 00:52:41;;;;;;;9.47;7.67;;;;;;;2.87;79.74;96664.66;4331219;32;20289;-63
2022/01/15 00:55:21;;;;;;;8.73;7.00;;;;;;;2.86;80.16;96666.47;4350501;32;20282;-63
2022/01/15 00:57:48;;;;;;;8.27;7.13;;;;;;;2.82;79.98;96664.47;4338503;32;20304;-63
2022/01/15 01:00:24;;;;;;;7.03;6.33;;;;;;;2.80;79.63;96661.25;4321298;32;20336;-63
2022/01/15 01:02:51;;;;;;;8.37;7.57;;;;;;;2.86;79.37;96666.47;4360968;32;20382;-63
2022/01/15 01:05:18;;;;;;;7.47;6.50;;;;;;;2.90;79.05;96669.47;4334000;32;20281;-63
2022/01/15 01:07:44;;;;;;;8.73;7.30;;;;;;;2.86;79.18;96670.91;4330726;32;20273;-63
2022/01/15 01:10:35;;;;;;;7.70;7.00;;;;;;;2.90;79.10;96670.28;4306276;32;20331;-63
2022/01/15 01:22:02;;;;;;;7.93;6.77;;;;;;;2.71;79.59;96668.53;4339659;32;20296;-63
2022/01/15 01:23:55;;;;;;;7.63;6.87;;;;;;;2.72;79.49;96664.91;4341168;32;20335;-63
2022/01/15 01:26:30;;;;;;;10.20;7.73;;;;;;;2.49;79.87;96659.41;4319421;32;20285;-63
2022/01/15 01:29:11;;;;;;;9.23;7.33;;;;;;;2.45;80.28;96663.47;4336338;32;20315;-63
2022/01/15 01:34:31;;;;;;;8.10;7.13;;;;;;;2.64;79.57;96662.56;4346181;32;20323;-63
2022/01/15 01:37:12;;;;;;;11.53;7.67;;;;;;;2.65;79.48;96654.50;4354830;32;20293;-64
2022/01/15 01:39:52;;;;;;;9.37;7.30;;;;;;;2.57;79.78;96652.09;4359822;32;20288;-63
2022/01/15 01:45:13;;;;;;;7.63;6.53;;;;;;;2.38;80.33;96643.34;4330391;32;20410;-63
2022/01/15 01:47:51;;;;;;;7.68;6.85;;;;;;;2.31;80.57;96644.38;4331129;32;20404;-63
2022/01/15 01:50:23;;;;;;;6.97;6.37;;;;;;;2.42;80.54;96635.88;4328396;32;20181;-63
2022/01/15 01:53:00;;;;;;;8.10;6.73;;;;;;;2.52;80.25;96638.81;4321543;32;20462;-64
2022/01/15 01:55:30;;;;;;;8.67;6.30;;;;;;;2.58;79.64;96637.19;4305714;32;20282;-63
2022/01/15 01:57:58;;;;;;;6.80;6.20;;;;;;;2.55;79.69;96630.56;4339801;32;20356;-63
2022/01/15 02:00:27;;;;;;;7.00;6.30;;;;;;;2.42;79.80;96628.03;4316832;33;20366;-63
2022/01/15 02:02:55;;;;;;;7.17;6.47;;;;;;;2.41;79.45;96629.03;4316446;32;20308;-63
2022/01/15 02:05:22;;;;;;;7.10;6.50;;;;;;;2.47;79.47;96625.59;4298390;33;20274;-63
2022/01/15 02:07:49;;;;;;;7.10;6.40;;;;;;;2.46;79.22;96620.56;4325294;32;20290;-63
2022/01/15 02:10:19;;;;;;;7.33;6.23;;;;;;;2.46;79.02;96621.34;4329926;33;20277;-63
2022/01/15 02:12:57;;;;;;;7.50;5.97;;;;;;;2.52;78.79;96617.87;4330137;33;20311;-63
2022/01/15 02:15:24;;;;;;;7.07;6.13;;;;;;;2.59;78.56;96612.59;4320289;33;20305;-63
2022/01/15 02:17:51;;;;;;;6.40;5.80;;;;;;;2.55;78.42;96606.97;4325280;32;20364;-63
2022/01/15 02:26:05;;;;;;;6.87;6.27;;;;;;;2.39;78.97;96617.97;4338333;32;20311;-63
2022/01/15 02:28:36;;;;;;;6.13;5.40;;;;;;;2.12;79.91;96606.00;4342690;32;20347;-63
2022/01/15 02:31:13;;;;;;;6.83;6.17;;;;;;;1.83;81.43;96607.31;4316635;32;20343;-64
2022/01/15 02:33:45;;;;;;;6.83;6.17;;;;;;;1.96;81.33;96608.06;4325152;32;20281;-63
2022/01/15 02:36:15;;;;;;;6.80;6.20;;;;;;;2.19;80.34;96591.06;4318181;33;20290;-63
2022/01/15 02:38:42;;;;;;;6.70;6.00;;;;;;;2.09;80.55;96591.50;4334006;32;20385;-63
2022/01/15 02:41:14;;;;;;;6.70;5.50;;;;;;;2.11;79.78;96591.31;4292444;33;20283;-63
2022/01/15 02:43:42;;;;;;;6.80;5.40;;;;;;;2.23;79.48;96582.59;4331106;32;20372;-63
2022/01/15 02:48:57;;;;;;;5.70;5.30;;;;;;;2.34;79.07;96584.53;4326264;32;20331;-66
2022/01/15 02:51:27;;;;;;;6.93;6.00;;;;;;;2.28;79.24;96580.16;4339954;32;20224;-63
2022/01/15 02:54:00;;;;;;;5.87;5.37;;;;;;;2.33;79.28;96576.91;4335631;32;20282;-63
2022/01/15 02:56:40;;;;;;;6.33;5.60;;;;;;;2.19;79.15;96578.78;4342006;32;20289;-63
2022/01/15 02:59:14;;;;;;;7.57;5.53;;;;;;;2.20;79.44;96574.38;4343379;32;20278;-63
2022/01/15 03:01:44;;;;;;;5.73;5.27;;;;;;;2.21;78.79;96573.34;4313814;32;20262;-63
2022/01/15 03:04:13;;;;;;;6.18;5.57;;;;;;;2.15;79.19;96567.12;4351958;32;20445;-63
2022/01/15 03:06:39;;;;;;;6.00;5.30;;;;;;;2.19;79.42;96573.56;4347813;32;20254;-63
2022/01/15 03:09:06;;;;;;;5.97;5.37;;;;;;;2.08;79.93;96563.72;4349691;32;20190;-63
2022/01/15 03:11:36;;;;;;;5.77;5.27;;;;;;;2.22;79.01;96559.25;4344934;32;20278;-63
2022/01/15 03:14:02;;;;;;;5.57;4.72;;;;;;;2.03;79.39;96563.59;4339982;32;20322;-63
2022/01/15 03:16:29;;;;;;;7.63;5.40;;;;;;;1.95;79.75;96554.16;4344834;32;20197;-63
2022/01/15 03:19:01;;;;;;;5.47;4.97;;;;;;;2.16;78.56;96550.41;4345787;32;20194;-63
2022/01/15 03:21:28;;;;;;;7.55;5.55;;;;;;;1.93;78.80;96550.13;4325651;32;20376;-63
2022/01/15 03:23:55;;;;;;;6.03;5.40;;;;;;;1.93;79.04;96542.28;4316680;32;20256;-63
2022/01/15 03:26:22;;;;;;;5.50;5.00;;;;;;;1.81;79.27;96544.75;4342808;32;20246;-63
2022/01/15 03:28:49;;;;;;;5.82;5.22;;;;;;;1.67;80.00;96540.56;4366819;32;20277;-63
2022/01/15 03:31:15;;;;;;;7.63;5.47;;;;;;;1.81;79.62;96530.88;4324960;32;20193;-64
2022/01/15 03:33:41;;;;;;;5.27;4.87;;;;;;;1.80;79.11;96539.72;4316226;32;20300;-63
2022/01/15 03:36:12;;;;;;;5.10;4.65;;;;;;;1.75;79.46;96542.97;4344947;32;20356;-63
2022/01/15 03:38:38;;;;;;;5.18;4.70;;;;;;;1.81;78.76;96542.13;4345959;32;20194;-63
2022/01/15 03:41:07;;;;;;;5.25;4.75;;;;;;;1.84;78.85;96535.69;4358952;32;20197;-64
2022/01/15 03:43:33;;;;;;;4.97;4.53;;;;;;;1.74;78.97;96538.75;4345442;32;20221;-63
2022/01/15 03:45:59;;;;;;;5.43;4.95;;;;;;;1.72;79.35;96528.47;4319898;32;20182;-64
2022/01/15 03:48:29;;;;;;;5.25;4.80;;;;;;;1.72;79.16;96540.75;4339930;32;20189;-63
2022/01/15 03:50:55;;;;;;;5.35;4.90;;;;;;;1.57;79.92;96533.19;4342525;32;20206;-64
2022/01/15 03:53:22;;;;;;;5.30;4.80;;;;;;;1.70;79.81;96527.09;4351917;32;20185;-63
2022/01/15 03:55:53;;;;;;;5.53;5.10;;;;;;;1.58;79.85;96536.59;4335667;32;20351;-63
2022/01/15 03:58:22;;;;;;;5.33;4.70;;;;;;;1.73;79.37;96532.72;4319387;32;20194;-63
2022/01/15 04:00:49;;;;;;;5.47;5.07;;;;;;;1.82;79.55;96529.88;4324826;32;20356;-63
2022/01/15 04:03:15;;;;;;;5.27;4.40;;;;;;;1.91;79.28;96526.78;4336472;32;20186;-63
2022/01/15 04:05:42;;;;;;;5.35;4.85;;;;;;;1.81;78.59;96521.22;4329751;32;20282;-63
2022/01/15 04:08:11;;;;;;;5.78;5.28;;;;;;;1.87;78.94;96533.44;4326824;32;20224;-63
2022/01/15 04:10:38;;;;;;;5.57;5.05;;;;;;;1.91;78.98;96526.78;4334315;32;20205;-63
2022/01/15 04:13:05;;;;;;;5.28;4.70;;;;;;;2.02;78.53;96533.19;4344961;32;20186;-64
2022/01/15 04:15:32;;;;;;;5.47;5.03;;;;;;;1.89;78.24;96533.22;4342990;32;20225;-63
2022/01/15 04:18:00;;;;;;;6.25;4.82;;;;;;;1.99;78.21;96531.00;4344378;32;20297;-63
2022/01/15 04:20:27;;;;;;;5.75;4.78;;;;;;;1.91;78.53;96528.59;4344634;32;20296;-63
2022/01/15 04:22:53;;;;;;;5.75;5.25;;;;;;;1.78;79.24;96532.09;4345409;32;20245;-63
2022/01/15 04:25:20;;;;;;;5.62;5.12;;;;;;;1.89;78.98;96530.63;4338920;32;20198;-64
2022/01/15 04:27:46;;;;;;;5.47;4.95;;;;;;;1.85;79.37;96534.69;4339566;32;20189;-63
2022/01/15 04:30:16;;;;;;;6.30;5.33;;;;;;;1.74;79.17;96533.50;4343444;32;20236;-63
2022/01/15 04:32:42;;;;;;;5.03;4.57;;;;;;;1.69;79.72;96538.56;4313822;32;20232;-64
2022/01/15 04:35:12;;;;;;;5.03;4.57;;;;;;;1.74;79.82;96528.28;4345542;32;20185;-63
2022/01/15 04:37:46;;;;;;;6.68;5.37;;;;;;;1.96;79.02;96528.78;4334057;32;20197;-63
2022/01/15 04:40:25;;;;;;;5.90;5.30;;;;;;;1.60;80.14;96524.91;4348848;32;20205;-63
2022/01/15 04:42:52;;;;;;;6.15;5.55;;;;;;;1.69;79.78;96534.13;4337981;32;20193;-63
2022/01/15 04:45:22;;;;;;;5.95;5.45;;;;;;;1.85;79.48;96539.91;4326552;32;20189;-63
2022/01/15 04:47:49;;;;;;;8.57;6.20;;;;;;;1.80;79.89;96532.69;4342448;32;20185;-64
2022/01/15 04:50:20;;;;;;;4.93;4.53;;;;;;;1.82;79.67;96533.28;4321598;32;20313;-63
2022/01/15 04:52:47;;;;;;;5.32;4.87;;;;;;;1.63;79.70;96540.19;4306013;33;20294;-63
2022/01/15 04:55:14;;;;;;;5.90;5.40;;;;;;;1.49;80.78;96532.59;4318862;32;20185;-63
2022/01/15 04:57:42;;;;;;;5.47;4.60;;;;;;;1.97;79.44;96530.38;4325518;32;20289;-63
2022/01/15 05:00:13;;;;;;;5.80;5.30;;;;;;;1.88;79.55;96523.78;4319962;32;20420;-63
2022/01/15 05:02:40;;;;;;;5.18;4.78;;;;;;;1.83;79.38;96529.66;4344145;32;20342;-63
2022/01/15 05:05:07;;;;;;;6.23;4.90;;;;;;;1.92;78.94;96525.78;4295613;32;20189;-63
2022/01/15 05:07:34;;;;;;;5.97;5.47;;;;;;;1.94;79.25;96521.12;4344213;32;20341;-64
2022/01/15 05:10:01;;;;;;;4.87;4.57;;;;;;;1.82;79.62;96514.97;4348120;32;20353;-64
2022/01/15 05:12:43;;;;;;;6.30;5.70;;;;;;;1.88;79.60;96511.50;4322991;33;20282;-63
2022/01/15 05:15:22;;;;;;;5.22;4.80;;;;;;;1.99;79.36;96523.13;4335755;32;20277;-63
2022/01/15 05:17:51;;;;;;;5.82;5.05;;;;;;;1.94;79.19;96520.34;4334927;32;20201;-63
2022/01/15 05:20:18;;;;;;;6.03;5.45;;;;;;;1.83;79.31;96528.84;4341077;32;20232;-63
2022/01/15 05:22:46;;;;;;;6.03;4.83;;;;;;;1.90;79.53;96525.19;4328494;32;20191;-63
2022/01/15 05:25:14;;;;;;;6.47;5.30;;;;;;;1.98;79.04;96524.94;4325158;32;20457;-63
2022/01/15 05:27:53;;;;;;;5.07;4.68;;;;;;;1.76;79.39;96534.09;4342704;32;20316;-63
2022/01/15 05:30:19;;;;;;;5.17;4.77;;;;;;;1.68;79.41;96532.53;4324238;32;20271;-63
2022/01/15 05:32:49;;;;;;;5.63;5.13;;;;;;;1.78;79.19;96524.25;4335084;32;20297;-63
2022/01/15 05:35:15;;;;;;;6.95;5.65;;;;;;;1.88;79.15;96521.16;4334428;32;20209;-63
2022/01/15 05:37:42;;;;;;;6.23;5.63;;;;;;;1.92;78.67;96517.94;4323460;32;20199;-63
2022/01/15 05:40:09;;;;;;;5.33;4.83;;;;;;;1.83;78.98;96526.25;4340465;32;20281;-63
2022/01/15 05:42:34;;;;;;;6.53;5.78;;;;;;;1.89;78.76;96528.00;4346988;32;20307;-63
2022/01/15 05:45:00;;;;;;;5.80;5.20;;;;;;;1.75;78.93;96519.41;4346385;32;20197;-63
2022/01/15 05:47:27;;;;;;;5.43;4.93;;;;;;;1.64;79.55;96522.69;4346808;32;20208;-63
2022/01/15 05:49:54;;;;;;;5.28;4.87;;;;;;;1.87;78.62;96530.06;4347839;32;20245;-63
2022/01/15 05:52:19;;;;;;;6.10;4.90;;;;;;;1.77;79.21;96534.91;4332098;32;20288;-63
2022/01/15 05:54:45;;;;;;;6.50;5.20;;;;;;;1.81;79.33;96525.66;4337315;32;20319;-63
2022/01/15 05:57:11;;;;;;;5.77;5.27;;;;;;;1.73;79.52;96524.06;4334084;32;20296;-64
2022/01/15 05:59:38;;;;;;;9.48;5.35;;;;;;;1.56;79.56;96526.34;4356429;32;20211;-63
2022/01/15 06:02:04;;;;;;;5.00;4.50;;;;;;;1.55;80.15;96526.53;4353838;32;20247;-63
2022/01/15 06:04:29;;;;;;;6.15;5.60;;;;;;;1.76;79.42;96534.09;4354984;32;20216;-63
2022/01/15 06:06:56;;;;;;;5.70;5.20;;;;;;;1.75;79.85;96529.88;4363634;32;20263;-63
2022/01/15 06:09:21;;;;;;;6.57;5.97;;;;;;;1.66;81.38;96533.75;4356097;32;20288;-63
2022/01/15 06:11:48;;;;;;;7.37;6.77;;;;;;;1.89;82.40;96528.81;4350772;32;20248;-63
2022/01/15 06:14:14;;;;;;;7.20;6.50;;;;;;;1.80;83.76;96537.12;4345061;32;20262;-63
2022/01/15 06:16:40;;;;;;;6.35;5.85;;;;;;;1.92;83.48;96522.34;4350605;32;20284;-63
2022/01/15 06:19:07;;;;;;;7.03;6.37;;;;;;;1.80;84.20;96531.88;4336001;32;20220;-64
2022/01/15 06:21:32;;;;;;;6.75;6.15;;;;;;;1.91;83.27;96529.41;4340391;32;20281;-64
2022/01/15 06:23:59;;;;;;;8.17;6.13;;;;;;;1.95;83.24;96532.41;4365389;32;20199;-63
2022/01/15 06:26:25;;;;;;;9.45;6.40;;;;;;;2.02;82.87;96530.56;4346001;32;20227;-63
2022/01/15 06:28:51;;;;;;;7.13;6.10;;;;;;;2.01;82.69;96526.34;4341524;32;20219;-63
2022/01/15 06:31:18;;;;;;;6.70;5.85;;;;;;;1.96;83.09;96524.34;4347291;32;20312;-63
2022/01/15 06:33:45;;;;;;;7.18;6.47;;;;;;;2.10;82.72;96535.53;4346533;32;20300;-63
2022/01/15 06:36:11;;;;;;;7.45;6.62;;;;;;;1.78;83.49;96532.09;4325684;32;20185;-63
2022/01/15 06:38:37;;;;;;;6.82;6.20;;;;;;;1.72;83.76;96538.13;4323113;32;20188;-63
2022/01/15 06:41:10;;;;;;;8.60;6.55;;;;;;;1.60;84.02;96545.03;4363979;32;20204;-63
2022/01/15 06:43:36;;;;;;;7.05;6.53;;;;;;;1.30;85.15;96540.28;4360561;32;20193;-64
2022/01/15 06:46:04;;;;;;;8.38;6.68;;;;;;;1.09;86.18;96537.09;4351989;32;20203;-64
2022/01/15 06:48:31;;;;;;;7.10;6.40;;;;;;;1.19;85.89;96547.97;4341391;32;20197;-66
2022/01/15 06:51:19;;;;;;;7.05;6.35;;;;;;;1.22;85.28;96544.94;4345474;32;20193;-63
2022/01/15 06:53:44;;;;;;;7.32;6.62;;;;;;;1.32;84.89;96553.16;4344728;32;20181;-64
2022/01/15 06:56:17;;;;;;;10.80;6.83;;;;;;;1.35;84.77;96548.31;4335863;32;20249;-66
2022/01/15 06:58:46;;;;;;;9.73;7.40;;;;;;;1.09;84.47;96545.75;4343948;32;20224;-63
2022/01/15 07:01:13;;;;;;;7.50;6.80;;;;;;;0.72;85.41;96546.38;4349348;32;20313;-63
2022/01/15 07:03:38;;;;;;;7.40;6.70;;;;;;;0.79;86.01;96552.41;4334607;32;20248;-63
2022/01/15 07:06:04;;;;;;;8.00;7.03;;;;;;;0.89;85.49;96553.59;4314639;32;20197;-63
2022/01/15 07:08:32;;;;;;;12.03;7.30;;;;;;;1.01;85.03;96546.78;4349060;32;20206;-64
2022/01/15 07:10:57;;;;;;;9.35;7.32;;;;;;;0.83;85.11;96548.41;4324602;32;20242;-63
2022/01/15 07:13:26;;;;;;;12.83;8.37;;;;;;;0.49;86.26;96558.00;4349889;32;20210;-63
2022/01/15 07:15:56;;;;;;;8.18;7.32;;;;;;;0.60;86.64;96548.78;4340983;32;20255;-63
2022/01/15 07:18:22;;;;;;;10.30;7.82;;;;;;;0.58;87.17;96556.03;4342926;32;20299;-63
2022/01/15 07:20:51;;;;;;;14.02;7.80;;;;;;;0.29;88.01;96567.59;4332979;32;20221;-63
2022/01/15 07:23:23;;;;;;;8.65;7.62;;;;;;;0.49;87.38;96563.22;4354029;32;20211;-63
2022/01/15 07:25:51;;;;;;;9.85;8.27;;;;;;;0.56;86.97;96564.06;4361507;32;20279;-63
2022/01/15 07:28:18;;;;;;;20.15;8.38;;;;;;;0.31;87.17;96561.19;4372718;32;20206;-64
2022/01/15 07:30:45;;;;;;;23.23;9.25;;;;;;;0.31;87.73;96571.63;4362815;32;20290;-63
2022/01/15 07:33:14;;;;;;;11.10;8.13;;;;;;;0.52;87.23;96562.84;4314803;32;20243;-63
2022/01/15 07:35:46;;;;;;;10.63;8.80;;;;;;;0.72;86.42;96560.22;4342101;32;20193;-63
2022/01/15 07:38:14;;;;;;;10.27;8.25;;;;;;;0.68;86.24;96566.84;4346175;32;20246;-63
2022/01/15 07:40:58;;;;;;;12.13;8.32;;;;;;;0.37;87.35;96570.03;4334178;32;20181;-63
2022/01/15 07:43:26;;;;;;;12.75;8.57;;;;;;;0.26;87.67;96562.78;4309708;32;20245;-63
2022/01/15 07:45:56;;;;;;;17.25;8.20;;;;;;;0.49;87.03;96558.00;4345243;32;20277;-63
2022/01/15 07:48:26;;;;;;;23.70;9.02;;;;;;;0.45;86.66;96555.97;4333466;32;20257;-63
2022/01/15 07:50:51;;;;;;;13.10;8.43;;;;;;;0.67;86.40;96560.81;4350703;32;20208;-64
2022/01/15 07:53:18;;;;;;;8.90;7.73;;;;;;;0.59;86.75;96555.81;4335782;32;20261;-63
2022/01/15 07:55:46;;;;;;;11.27;7.85;;;;;;;0.86;85.91;96558.41;4350128;32;20247;-64
2022/01/15 07:58:12;;;;;;;12.90;8.90;;;;;;;0.88;85.29;96554.59;4326808;32;20189;-63
2022/01/15 08:00:38;;;;;;;10.95;8.85;;;;;;;0.94;85.27;96553.00;4351958;32;20212;-63
2022/01/15 08:03:06;;;;;;;12.93;8.60;;;;;;;1.08;85.01;96551.16;4342396;32;20209;-63
2022/01/15 08:05:34;;;;;;;9.63;8.18;;;;;;;0.91;85.04;96551.59;4332978;32;20193;-63
2022/01/15 08:08:01;;;;;;;8.85;8.02;;;;;;;0.43;86.89;96553.56;4315022;32;20205;-65
2022/01/15 08:10:48;;;;;;;10.10;8.40;;;;;;;0.49;87.17;96552.78;4321626;32;20197;-63
2022/01/15 08:13:16;;;;;;;8.90;8.00;;;;;;;0.60;87.07;96549.59;4314118;32;20291;-63
2022/01/15 08:15:43;;;;;;;9.00;7.93;;;;;;;0.47;87.44;96548.75;4357740;32;20227;-64
2022/01/15 08:18:11;;;;;;;10.27;8.02;;;;;;;0.80;86.49;96548.78;4305358;32;20274;-63
2022/01/15 08:20:39;;;;;;;12.02;8.40;;;;;;;0.60;86.72;96543.56;4323907;32;20201;-63
2022/01/15 08:23:04;;;;;;;9.02;8.13;;;;;;;0.84;86.53;96534.31;4335482;32;20218;-63
2022/01/15 08:25:32;;;;;;;9.77;8.77;;;;;;;0.88;86.05;96536.31;4340010;32;20257;-64
2022/01/15 08:27:58;;;;;;;11.02;8.77;;;;;;;0.91;86.15;96530.69;4349187;32;20208;-63
2022/01/15 08:30:25;;;;;;;10.40;9.05;;;;;;;0.69;86.61;96529.31;4357257;32;20249;-63
2022/01/15 08:32:51;;;;;;;10.68;9.32;;;;;;;1.03;85.59;96528.28;4326299;32;20228;-63
2022/01/15 08:35:18;;;;;;;10.90;8.97;;;;;;;0.92;85.84;96529.69;4347984;32;20189;-63
2022/01/15 08:37:44;;;;;;;10.00;8.88;;;;;;;0.93;85.81;96528.69;4309522;33;20226;-63
2022/01/15 08:40:13;;;;;;;11.80;9.55;;;;;;;0.78;86.10;96519.47;4321910;32;20182;-63
2022/01/15 08:42:39;;;;;;;10.75;9.25;;;;;;;1.02;86.18;96521.47;4308777;32;20244;-63
2022/01/15 08:45:12;;;;;;;10.43;9.07;;;;;;;0.91;86.15;96520.25;4317482;32;20197;-64
2022/01/15 08:47:41;;;;;;;10.50;9.10;;;;;;;0.87;86.53;96523.47;4338692;32;20260;-63
2022/01/15 08:50:09;;;;;;;10.10;8.48;;;;;;;1.11;85.73;96517.59;4337630;32;20196;-63
2022/01/15 08:55:58;;;;;;;12.18;10.32;;;;;;;1.23;85.42;96516.00;4329502;32;20215;-64
2022/01/15 08:58:27;;;;;;;13.80;10.63;;;;;;;1.22;85.45;96510.97;4340965;32;20221;-64
2022/01/15 09:00:57;;;;;;;15.63;11.45;;;;;;;0.95;86.32;96516.22;4334999;32;20193;-63
2022/01/15 09:03:25;;;;;;;14.50;12.37;;;;;;;0.84;87.08;96506.38;4340557;32;20205;-63
2022/01/15 09:05:52;;;;;;;11.77;10.57;;;;;;;1.10;86.33;96502.13;4292760;32;20233;-64
2022/01/15 09:08:24;;;;;;;13.80;10.15;;;;;;;1.23;85.97;96502.94;4319927;32;20211;-63
2022/01/15 09:10:54;;;;;;;11.80;10.40;;;;;;;1.28;85.39;96499.66;4344938;32;20287;-63
2022/01/15 09:13:21;;;;;;;11.52;10.35;;;;;;;1.36;85.34;96492.41;4337678;32;20303;-63
2022/01/15 09:15:49;;;;;;;12.00;10.80;;;;;;;1.37;85.31;96494.03;4343889;32;20190;-63
2022/01/15 09:18:18;;;;;;;12.80;10.75;;;;;;;1.49;84.62;96490.75;4320980;32;20193;-63
2022/01/15 09:20:46;;;;;;;11.35;9.82;;;;;;;1.56;84.60;96494.16;4319892;32;20274;-63
2022/01/15 09:23:13;;;;;;;11.90;10.50;;;;;;;1.58;84.50;96495.56;4300867;32;20199;-64
2022/01/15 09:25:39;;;;;;;12.07;10.88;;;;;;;1.48;84.92;96502.22;4309468;32;20193;-63
2022/01/15 09:30:58;;;;;;;11.98;10.63;;;;;;;1.09;86.67;96490.88;4340831;32;20243;-63
2022/01/15 09:33:25;;;;;;;10.98;9.88;;;;;;;1.43;85.92;96489.00;4341505;32;20253;-63
2022/01/15 09:35:51;;;;;;;10.90;9.85;;;;;;;1.41;85.62;96491.81;4338065;32;20189;-63
2022/01/15 09:38:20;;;;;;;11.20;10.00;;;;;;;1.29;85.54;96491.62;4323818;32;20197;-63
2022/01/15 09:40:47;;;;;;;12.63;10.25;;;;;;;1.54;85.14;96498.78;4325812;32;20201;-63
2022/01/15 09:43:15;;;;;;;11.35;10.25;;;;;;;1.40;85.12;96495.44;4328298;32;20193;-63
2022/01/15 09:45:42;;;;;;;11.32;10.13;;;;;;;1.27;86.23;96493.66;4347773;32;20192;-63
2022/01/15 09:48:08;;;;;;;11.60;10.43;;;;;;;1.10;86.98;96486.47;4297310;32;20235;-63
2022/01/15 09:50:46;;;;;;;13.32;11.43;;;;;;;1.35;86.62;96482.97;4312038;32;20320;-63
2022/01/15 09:53:16;;;;;;;12.00;10.50;;;;;;;1.40;86.06;96487.59;4338741;32;20193;-63
2022/01/15 09:55:46;;;;;;;11.57;10.25;;;;;;;1.51;85.70;96486.13;4349442;32;20181;-64
2022/01/15 09:58:19;;;;;;;13.17;10.10;;;;;;;1.53;85.44;96484.91;4327883;32;20193;-64
2022/01/15 10:00:49;;;;;;;11.65;10.45;;;;;;;1.15;86.56;96484.03;4320152;32;20287;-63
2022/01/15 10:03:19;;;;;;;12.73;11.12;;;;;;;1.26;86.63;96486.00;4307367;32;20201;-63
2022/01/15 10:05:47;;;;;;;11.23;9.95;;;;;;;1.38;86.65;96479.94;4328638;32;20185;-63
2022/01/15 10:08:19;;;;;;;12.40;11.18;;;;;;;1.56;86.22;96475.84;4347625;32;20231;-63
2022/01/15 10:10:59;;;;;;;14.87;12.35;;;;;;;1.44;86.51;96478.34;4325738;32;20197;-63
2022/01/15 10:13:28;;;;;;;13.23;11.88;;;;;;;0.99;88.56;96482.69;4272967;33;20238;-63
2022/01/15 10:16:03;;;;;;;14.00;11.82;;;;;;;1.09;89.51;96477.00;4321373;32;20200;-63
2022/01/15 10:18:35;;;;;;;12.48;11.15;;;;;;;1.25;88.84;96474.75;4308316;32;20185;-63
2022/01/15 10:21:19;;;;;;;14.82;12.48;;;;;;;1.28;89.17;96476.97;4322227;32;20257;-65
2022/01/15 10:24:03;;;;;;;15.15;12.48;;;;;;;1.27;88.76;96469.31;4335014;32;20271;-63
2022/01/15 10:26:36;;;;;;;14.05;12.55;;;;;;;1.38;88.35;96469.50;4343346;32;20185;-64
2022/01/15 10:29:08;;;;;;;22.95;15.55;;;;;;;1.42;88.75;96466.47;4320451;32;20193;-63
2022/01/15 10:31:46;;;;;;;16.40;13.98;;;;;;;1.47;88.18;96470.03;4346710;32;20244;-63
2022/01/15 10:34:31;;;;;;;18.62;14.10;;;;;;;1.45;88.14;96469.47;4334414;32;20200;-64
2022/01/15 10:37:25;;;;;;;18.42;14.35;;;;;;;1.25;88.87;96474.75;4333992;32;20197;-63
2022/01/15 10:40:15;;;;;;;19.33;15.25;;;;;;;1.17;89.84;96461.94;4316007;32;20198;-62
2022/01/15 10:42:49;;;;;;;23.12;17.17;;;;;;;1.36;89.76;96457.63;4350924;32;20226;-63
2022/01/15 10:45:17;;;;;;;22.20;16.65;;;;;;;1.34;89.56;96459.66;4333124;32;20263;-63
2022/01/15 10:47:49;;;;;;;21.15;16.20;;;;;;;1.29;89.72;96447.19;4323889;32;20193;-63
2022/01/15 10:50:43;;;;;;;24.00;16.62;;;;;;;1.32;90.34;96451.22;4351645;32;20225;-63
2022/01/15 10:53:14;;;;;;;20.80;15.85;;;;;;;1.43;90.18;96444.56;4342268;32;20216;-63
2022/01/15 10:55:40;;;;;;;22.62;15.82;;;;;;;1.70;88.83;96441.59;4304460;33;20200;-63
2022/01/15 10:58:16;;;;;;;21.35;16.20;;;;;;;1.67;88.49;96435.97;4323335;32;20185;-63
2022/01/15 11:00:48;;;;;;;19.10;15.05;;;;;;;1.47;89.29;96443.09;4340567;32;20219;-64
2022/01/15 11:03:17;;;;;;;17.67;14.55;;;;;;;1.49;89.30;96446.31;4336582;32;20272;-63
2022/01/15 11:05:55;;;;;;;16.08;13.35;;;;;;;1.53;89.55;96434.44;4326825;32;20205;-63
2022/01/15 11:08:28;;;;;;;14.15;11.18;;;;;;;1.27;89.71;96436.16;4334033;32;20281;-63
2022/01/15 11:11:24;;;;;;;17.50;13.40;;;;;;;1.52;89.38;96438.88;4329174;32;20192;-63
2022/01/15 11:13:50;;;;;;;16.10;11.55;;;;;;;1.47;89.64;96436.06;4347636;32;20285;-63
2022/01/15 11:16:19;;;;;;;16.47;12.43;;;;;;;1.33;89.66;96434.53;4346656;32;20189;-63
2022/01/15 11:18:49;;;;;;;17.02;11.63;;;;;;;1.33;90.19;96440.56;4347004;32;20259;-63
2022/01/15 11:21:20;;;;;;;36.88;12.80;;;;;;;1.35;90.47;96428.09;4340557;32;20212;-63
2022/01/15 11:23:51;;;;;;;40.12;11.65;;;;;;;1.00;91.46;96419.78;4334432;32;20262;-63
2022/01/15 11:26:24;;;;;;;20.35;11.65;;;;;;;1.14;91.65;96417.91;4319532;32;20205;-63
2022/01/15 11:28:55;;;;;;;16.83;12.37;;;;;;;1.00;92.39;96413.75;4324387;32;20212;-63
2022/01/15 11:31:26;;;;;;;20.23;12.15;;;;;;;1.10;92.86;96408.09;4323551;32;20230;-63
2022/01/15 11:34:14;;;;;;;27.95;13.90;;;;;;;1.24;93.06;96412.28;4291700;32;20205;-63
2022/01/15 11:36:42;;;;;;;22.67;15.55;;;;;;;1.26;93.47;96415.44;4346787;32;20203;-63
2022/01/15 11:39:12;;;;;;;18.73;12.55;;;;;;;1.42;93.11;96401.13;4344082;32;20225;-63
2022/01/15 11:41:43;;;;;;;20.12;14.02;;;;;;;1.74;92.22;96397.50;4320867;32;20202;-63
2022/01/15 11:44:33;;;;;;;16.60;12.35;;;;;;;1.75;91.56;96404.34;4349218;32;20185;-64
2022/01/15 11:47:20;;;;;;;22.25;12.13;;;;;;;1.91;90.54;96398.59;4358201;32;20267;-63
2022/01/15 11:49:54;;;;;;;19.92;12.65;;;;;;;1.76;91.59;96397.31;4357085;32;20227;-63
2022/01/15 11:52:26;;;;;;;17.35;12.40;;;;;;;1.86;91.51;96388.00;4352183;32;20279;-63
2022/01/15 11:54:54;;;;;;;18.12;12.25;;;;;;;1.95;91.42;96389.31;4352903;32;20201;-63
2022/01/15 11:57:52;;;;;;;45.83;25.12;;;;;;;1.85;91.88;96386.38;4360691;32;20260;-63
2022/01/15 12:00:32;;;;;;;17.80;12.80;;;;;;;1.81;92.64;96381.78;4349984;32;20193;-63
2022/01/15 12:03:12;;;;;;;23.73;12.55;;;;;;;2.12;91.84;96392.22;4339959;32;20245;-63
2022/01/15 12:05:43;;;;;;;18.45;12.35;;;;;;;1.89;92.08;96381.50;4330266;32;20243;-63
2022/01/15 12:08:11;;;;;;;19.00;13.17;;;;;;;2.00;92.00;96371.19;4354400;32;20204;-63
2022/01/15 12:10:55;;;;;;;20.53;13.30;;;;;;;2.16;91.43;96369.84;4328979;32;20366;-63
2022/01/15 12:13:41;;;;;;;17.10;12.47;;;;;;;2.27;91.39;96358.69;4337890;32;20334;-63
2022/01/15 12:16:29;;;;;;;25.80;12.20;;;;;;;2.25;91.67;96359.91;4334585;32;20284;-63
2022/01/15 12:18:58;;;;;;;23.50;13.70;;;;;;;2.17;91.21;96370.63;4363716;32;20287;-63